Time;durP1;ratioP1;P1;durP2;ratioP2;P2;SDS_P1;SDS_P2;PMS_P1;PMS_P2;Temp;Humidity;BMP_temperature;BMP_pressure;BME280_temperature;BME280_humidity;BME280_pressure;Samples;Min_cycle;Max_cycle;Signal;HPM_P1;HPM_P2
2021/07/21 00:00:25;;;;;;;6.30;4.00;;;20.00;99.90;;;;;;5067750;28;20217;-71
2021/07/21 00:02:54;;;;;;;4.75;4.15;;;20.00;99.90;;;;;;5068186;28;20542;-71
2021/07/21 00:05:23;;;;;;;6.85;3.92;;;19.90;99.90;;;;;;5067474;28;20288;-70
2021/07/21 00:07:50;;;;;;;6.53;4.60;;;19.90;99.90;;;;;;5067676;28;20199;-71
2021/07/21 00:10:20;;;;;;;5.78;4.07;;;20.70;99.90;;;;;;5066251;28;20196;-71
2021/07/21 00:15:37;;;;;;;6.32;4.28;;;19.80;99.90;;;;;;5063875;28;20564;-70
2021/07/21 00:18:17;;;;;;;7.10;4.75;;;19.80;99.90;;;;;;5062163;28;20233;-71
2021/07/21 00:20:47;;;;;;;4.57;4.07;;;19.70;99.90;;;;;;5064531;28;20197;-71
2021/07/21 00:23:15;;;;;;;7.50;4.50;;;19.70;99.90;;;;;;5065457;28;20205;-71
2021/07/21 00:25:41;;;;;;;6.70;4.57;;;19.70;99.90;;;;;;5064707;28;20189;-70
2021/07/21 00:28:09;;;;;;;8.00;4.30;;;20.00;99.90;;;;;;5064183;28;20193;-71
2021/07/21 00:30:36;;;;;;;6.38;3.95;;;19.60;99.90;;;;;;5061927;28;20277;-70
2021/07/21 00:33:03;;;;;;;5.10;4.22;;;19.60;99.90;;;;;;5067081;28;20201;-71
2021/07/21 00:35:31;;;;;;;9.30;4.85;;;19.50;99.90;;;;;;5049783;28;20197;-70
2021/07/21 00:37:58;;;;;;;6.57;4.25;;;19.50;99.90;;;;;;5065096;28;20870;-71
2021/07/21 00:40:25;;;;;;;6.78;4.40;;;19.50;99.90;;;;;;5101502;28;20617;-70
2021/07/21 00:42:53;;;;;;;6.28;4.60;;;20.00;99.90;;;;;;5101866;28;20616;-71
2021/07/21 00:45:20;;;;;;;5.57;4.05;;;19.40;99.90;;;;;;5069452;28;20196;-71
2021/07/21 00:47:49;;;;;;;6.57;4.38;;;19.40;99.90;;;;;;5101876;28;20219;-70
2021/07/21 00:50:17;;;;;;;5.13;4.13;;;19.50;99.90;;;;;;5100742;28;20201;-71
2021/07/21 00:52:46;;;;;;;5.70;3.70;;;19.40;99.90;;;;;;5101255;28;20265;-71
2021/07/21 00:55:18;;;;;;;6.22;4.47;;;19.30;99.90;;;;;;5066908;28;20196;-70
2021/07/21 00:57:51;;;;;;;5.20;4.20;;;19.40;99.90;;;;;;5097987;28;20220;-70
2021/07/21 01:00:20;;;;;;;4.28;3.88;;;19.30;99.90;;;;;;5061974;28;20208;-71
2021/07/21 01:02:54;;;;;;;5.40;4.38;;;19.30;99.90;;;;;;5083035;28;20312;-71
2021/07/21 01:05:25;;;;;;;5.35;4.15;;;19.30;99.90;;;;;;5062263;28;20576;-71
2021/07/21 01:07:56;;;;;;;4.93;3.88;;;19.30;99.90;;;;;;5062787;28;20559;-71
2021/07/21 01:10:27;;;;;;;5.85;4.18;;;19.20;99.90;;;;;;5062729;28;20221;-70
2021/07/21 01:13:01;;;;;;;6.97;4.22;;;19.20;99.90;;;;;;5066256;28;20236;-70
2021/07/21 01:15:38;;;;;;;6.18;4.05;;;19.20;99.90;;;;;;5063948;28;20212;-71
2021/07/21 01:18:11;;;;;;;4.20;3.80;;;19.20;99.90;;;;;;5086973;28;20229;-71
2021/07/21 01:21:08;;;;;;;6.45;4.20;;;19.20;99.90;;;;;;5072945;28;20281;-71
2021/07/21 01:24:06;;;;;;;5.05;4.00;;;19.10;99.90;;;;;;5081023;28;20224;-71
2021/07/21 01:26:42;;;;;;;4.32;3.58;;;19.10;99.90;;;;;;5089517;28;20274;-71
2021/07/21 01:29:14;;;;;;;4.15;3.67;;;19.10;99.90;;;;;;5092310;28;20224;-71
2021/07/21 01:31:44;;;;;;;6.63;4.05;;;19.00;99.90;;;;;;5059427;28;20189;-71
2021/07/21 01:34:12;;;;;;;6.38;4.28;;;19.50;99.90;;;;;;5065492;28;20448;-70
2021/07/21 01:36:41;;;;;;;4.22;3.70;;;19.00;99.90;;;;;;5068204;28;20200;-70
2021/07/21 01:39:13;;;;;;;5.70;4.20;;;19.00;99.90;;;;;;5100234;28;20223;-71
2021/07/21 01:41:46;;;;;;;4.20;3.80;;;19.00;99.90;;;;;;5063752;28;20840;-70
2021/07/21 01:44:19;;;;;;;11.25;5.53;;;18.90;99.90;;;;;;5066723;28;20204;-70
2021/07/21 01:46:51;;;;;;;6.93;4.90;;;18.90;99.90;;;;;;5068980;28;20202;-70
2021/07/21 01:49:21;;;;;;;6.95;4.47;;;18.90;99.90;;;;;;5099499;28;20243;-71
2021/07/21 01:51:49;;;;;;;7.72;4.53;;;18.80;99.90;;;;;;5100317;28;20211;-70
2021/07/21 01:54:18;;;;;;;5.77;4.57;;;18.80;99.90;;;;;;5068097;28;20440;-70
2021/07/21 01:56:59;;;;;;;6.93;4.80;;;18.70;99.90;;;;;;5101003;28;20271;-71
2021/07/21 01:59:30;;;;;;;6.80;4.77;;;18.60;99.90;;;;;;5063418;28;20215;-71
2021/07/21 02:02:23;;;;;;;6.90;4.33;;;18.50;99.90;;;;;;5045304;28;20218;-70
2021/07/21 02:05:05;;;;;;;8.18;4.45;;;18.40;99.90;;;;;;5027616;28;20830;-71
2021/07/21 02:07:33;;;;;;;7.20;4.47;;;18.40;99.90;;;;;;5026175;28;20297;-70
2021/07/21 02:10:01;;;;;;;5.75;4.10;;;18.40;99.90;;;;;;5038528;28;20202;-71
2021/07/21 02:12:52;;;;;;;5.77;4.10;;;18.30;99.90;;;;;;5026741;28;20246;-71
2021/07/21 02:15:21;;;;;;;5.70;4.35;;;18.30;99.90;;;;;;5028227;28;20208;-71
2021/07/21 02:17:49;;;;;;;5.30;3.85;;;18.30;99.90;;;;;;5032099;28;20748;-71
2021/07/21 02:20:17;;;;;;;5.40;4.28;;;18.20;99.90;;;;;;5027531;28;20299;-71
2021/07/21 02:22:52;;;;;;;5.80;3.83;;;18.20;99.90;;;;;;5027843;28;20201;-70
2021/07/21 02:25:45;;;;;;;4.87;3.83;;;18.20;99.90;;;;;;4999689;28;20215;-71
2021/07/21 02:28:15;;;;;;;6.07;3.70;;;19.00;99.90;;;;;;5025374;28;20235;-70
2021/07/21 02:30:49;;;;;;;4.80;3.77;;;18.20;99.90;;;;;;5021664;28;20251;-70
2021/07/21 02:33:22;;;;;;;4.37;3.97;;;18.20;99.90;;;;;;5035109;28;20319;-70
2021/07/21 02:35:50;;;;;;;7.47;4.38;;;18.30;99.90;;;;;;5017327;28;20270;-70
2021/07/21 02:38:18;;;;;;;8.70;4.83;;;18.30;99.90;;;;;;5026682;28;20240;-71
2021/07/21 02:40:52;;;;;;;5.57;4.20;;;19.30;99.90;;;;;;5080227;28;20232;-70
2021/07/21 02:43:24;;;;;;;4.87;4.00;;;18.30;99.90;;;;;;5067455;28;20208;-71
2021/07/21 02:45:54;;;;;;;5.83;3.60;;;18.30;99.90;;;;;;5100346;28;20213;-71
2021/07/21 02:48:24;;;;;;;5.45;3.50;;;18.40;99.90;;;;;;5103763;28;20195;-70
2021/07/21 02:50:57;;;;;;;9.73;4.30;;;18.40;99.90;;;;;;5071324;28;20209;-71
2021/07/21 02:53:32;;;;;;;6.70;3.85;;;18.40;99.90;;;;;;5053914;28;20603;-70
2021/07/21 02:56:22;;;;;;;5.25;3.30;;;18.40;99.90;;;;;;5069452;28;20225;-70
2021/07/21 02:58:54;;;;;;;3.87;3.37;;;18.50;99.90;;;;;;5070185;28;20222;-72
2021/07/21 03:01:25;;;;;;;5.20;3.35;;;19.40;99.90;;;;;;5098016;28;20220;-70
2021/07/21 03:03:54;;;;;;;4.80;3.93;;;18.50;99.90;;;;;;5070112;28;20196;-70
2021/07/21 03:06:26;;;;;;;3.97;3.10;;;18.50;99.90;;;;;;5103518;28;20311;-70
2021/07/21 03:09:02;;;;;;;3.60;3.27;;;18.50;99.90;;;;;;5063541;28;20207;-70
2021/07/21 03:11:45;;;;;;;3.53;3.20;;;18.60;99.90;;;;;;5103537;28;20693;-70
2021/07/21 03:14:13;;;;;;;5.10;3.42;;;18.60;99.90;;;;;;5101183;28;20226;-70
2021/07/21 03:16:49;;;;;;;5.87;3.60;;;19.60;99.90;;;;;;5071222;28;20267;-70
2021/07/21 03:19:26;;;;;;;6.88;3.80;;;18.80;99.90;;;;;;5102289;28;20291;-70
2021/07/21 03:22:00;;;;;;;6.38;3.85;;;18.60;99.90;;;;;;5095920;28;20234;-71
2021/07/21 03:24:29;;;;;;;5.65;2.97;;;18.70;99.90;;;;;;5069793;28;20227;-71
2021/07/21 03:27:08;;;;;;;5.28;3.63;;;18.70;99.90;;;;;;5063508;28;20204;-71
2021/07/21 03:30:11;;;;;;;4.43;3.65;;;19.90;99.90;;;;;;5065690;28;20662;-71
2021/07/21 03:32:52;;;;;;;4.20;3.45;;;18.80;99.90;;;;;;5069491;28;20203;-71
2021/07/21 03:35:26;;;;;;;3.65;3.30;;;18.90;99.90;;;;;;5102529;28;20722;-71
2021/07/21 03:37:56;;;;;;;6.32;3.10;;;18.90;99.90;;;;;;5103683;28;20584;-71
2021/07/21 03:40:26;;;;;;;2.90;2.70;;;19.50;99.90;;;;;;5103091;28;20205;-71
2021/07/21 03:43:12;;;;;;;3.83;3.03;;;19.10;99.90;;;;;;5070783;28;20278;-71
2021/07/21 03:45:50;;;;;;;3.78;3.20;;;19.10;99.90;;;;;;5102942;28;20287;-71
2021/07/21 03:48:19;;;;;;;4.30;3.50;;;19.10;99.90;;;;;;5102071;28;20200;-71
2021/07/21 03:51:05;;;;;;;5.45;3.58;;;19.10;99.90;;;;;;5070926;28;20207;-70
2021/07/21 03:53:44;;;;;;;5.43;3.33;;;19.30;99.90;;;;;;5066459;28;20284;-71
2021/07/21 03:56:13;;;;;;;3.40;3.10;;;19.10;99.90;;;;;;5089575;28;20210;-71
2021/07/21 03:58:48;;;;;;;5.03;3.33;;;19.30;99.90;;;;;;5065525;28;20310;-71
2021/07/21 04:01:21;;;;;;;3.40;3.00;;;19.10;99.90;;;;;;5067214;28;20205;-71
2021/07/21 04:03:57;;;;;;;5.45;3.55;;;19.20;99.90;;;;;;5058160;28;20606;-71
2021/07/21 04:06:32;;;;;;;3.42;3.13;;;19.30;99.90;;;;;;5100175;28;20205;-71
2021/07/21 04:09:21;;;;;;;8.25;4.00;;;19.30;99.90;;;;;;5063701;28;20220;-71
2021/07/21 04:11:51;;;;;;;4.38;2.90;;;19.40;99.90;;;;;;5103040;28;20293;-71
2021/07/21 04:14:24;;;;;;;3.78;3.40;;;19.40;99.90;;;;;;5100814;28;20198;-71
2021/07/21 04:17:17;;;;;;;4.03;3.40;;;19.50;99.90;;;;;;5089650;28;20239;-71
2021/07/21 04:19:47;;;;;;;5.15;3.45;;;20.40;99.90;;;;;;5080883;28;20582;-71
2021/07/21 04:22:16;;;;;;;3.75;3.20;;;19.50;99.90;;;;;;5082864;28;20217;-71
2021/07/21 04:24:49;;;;;;;4.40;3.28;;;19.60;99.90;;;;;;5067502;28;20667;-71
2021/07/21 04:27:18;;;;;;;3.75;3.33;;;19.60;99.90;;;;;;5102898;28;20209;-71
2021/07/21 04:29:53;;;;;;;3.78;3.05;;;20.30;99.90;;;;;;5092179;28;20207;-71
2021/07/21 04:32:22;;;;;;;4.03;2.85;;;19.80;99.90;;;;;;5066794;28;20201;-71
2021/07/21 04:34:52;;;;;;;4.40;3.63;;;19.80;99.90;;;;;;5064829;28;20193;-72
2021/07/21 04:37:22;;;;;;;3.10;2.85;;;19.90;99.90;;;;;;5067035;28;20232;-71
2021/07/21 04:40:04;;;;;;;3.78;3.20;;;20.00;99.90;;;;;;5082085;28;20554;-72
2021/07/21 04:42:44;;;;;;;5.38;3.03;;;20.00;99.90;;;;;;5055051;28;20288;-71
2021/07/21 04:45:15;;;;;;;4.07;2.92;;;20.10;99.90;;;;;;5091540;28;20566;-71
2021/07/21 04:47:44;;;;;;;6.80;2.95;;;20.20;99.90;;;;;;5067046;28;20494;-71
2021/07/21 04:50:17;;;;;;;3.25;2.88;;;20.20;99.90;;;;;;5068668;28;20205;-72
2021/07/21 04:52:45;;;;;;;3.20;2.90;;;20.20;99.90;;;;;;5101370;28;20710;-71
2021/07/21 04:55:13;;;;;;;2.65;2.45;;;20.20;99.90;;;;;;5101698;27;20224;-71
2021/07/21 04:57:42;;;;;;;3.53;2.70;;;20.30;99.90;;;;;;5069956;28;20227;-71
2021/07/21 05:00:17;;;;;;;3.75;2.97;;;20.30;99.90;;;;;;5098768;28;20247;-71
2021/07/21 05:03:06;;;;;;;2.60;2.40;;;20.30;99.90;;;;;;5053824;28;20753;-71
2021/07/21 05:05:37;;;;;;;2.95;2.70;;;20.40;99.90;;;;;;5099870;28;20668;-71
2021/07/21 05:08:05;;;;;;;4.28;3.40;;;20.40;99.90;;;;;;5101729;28;20305;-71
2021/07/21 05:10:38;;;;;;;4.85;2.90;;;20.50;99.90;;;;;;5066567;28;20205;-71
2021/07/21 05:13:05;;;;;;;4.05;2.78;;;20.60;99.90;;;;;;5100435;28;20290;-71
2021/07/21 05:15:36;;;;;;;3.22;2.92;;;20.60;99.90;;;;;;5064996;28;20688;-71
2021/07/21 05:18:13;;;;;;;3.78;2.85;;;20.70;99.90;;;;;;5091727;28;20224;-71
2021/07/21 05:20:54;;;;;;;3.53;2.80;;;20.80;99.90;;;;;;5090345;28;20227;-71
2021/07/21 05:23:23;;;;;;;3.03;2.83;;;20.80;99.90;;;;;;5081757;28;20205;-71
2021/07/21 05:26:00;;;;;;;4.32;2.90;;;21.20;99.90;;;;;;5059432;28;20203;-71
2021/07/21 05:28:46;;;;;;;5.15;2.70;;;21.00;99.90;;;;;;5048781;28;20196;-71
2021/07/21 05:31:39;;;;;;;3.08;2.40;;;21.00;99.90;;;;;;5065434;28;20209;-71
2021/07/21 05:34:24;;;;;;;2.50;2.25;;;21.10;99.90;;;;;;5066113;28;20212;-71
2021/07/21 05:36:58;;;;;;;3.78;3.25;;;21.20;99.90;;;;;;5093248;28;20608;-71
2021/07/21 05:39:32;;;;;;;2.83;2.63;;;21.20;99.90;;;;;;5049923;28;20236;-72
2021/07/21 05:41:59;;;;;;;8.07;5.45;;;21.30;99.90;;;;;;5057114;28;20687;-71
2021/07/21 05:44:29;;;;;;;7.10;4.82;;;21.30;99.90;;;;;;5085501;28;20204;-71
2021/07/21 05:46:59;;;;;;;6.63;4.15;;;21.40;99.90;;;;;;5088787;28;20247;-71
2021/07/21 05:49:27;;;;;;;3.13;2.90;;;21.40;99.90;;;;;;5085956;28;20219;-71
2021/07/21 05:52:10;;;;;;;3.20;2.65;;;21.50;99.90;;;;;;5060568;28;20204;-71
2021/07/21 05:54:40;;;;;;;2.92;2.63;;;21.70;99.90;;;;;;5064617;28;20200;-71
2021/07/21 05:57:09;;;;;;;2.55;2.35;;;21.90;99.90;;;;;;5069536;28;20196;-71
2021/07/21 05:59:46;;;;;;;2.70;2.50;;;22.00;99.90;;;;;;5080967;28;20950;-71
2021/07/21 06:02:14;;;;;;;4.85;3.38;;;22.20;99.90;;;;;;5055053;28;20319;-71
2021/07/21 06:04:42;;;;;;;2.85;2.65;;;22.30;99.90;;;;;;5064401;28;20197;-71
2021/07/21 06:07:42;;;;;;;4.97;2.40;;;22.50;99.90;;;;;;5085612;28;20232;-71
2021/07/21 06:10:28;;;;;;;2.58;2.38;;;23.00;99.90;;;;;;5083614;28;20635;-71
2021/07/21 06:13:00;;;;;;;2.10;1.90;;;24.30;99.90;;;;;;5060729;28;20235;-71
2021/07/21 06:15:30;;;;;;;1.90;1.63;;;25.30;99.90;;;;;;5062044;28;20278;-71
2021/07/21 06:17:58;;;;;;;1.85;1.70;;;25.60;99.90;;;;;;5078948;28;20499;-71
2021/07/21 06:20:43;;;;;;;2.20;2.00;;;25.70;99.90;;;;;;5077301;28;20775;-71
2021/07/21 06:23:12;;;;;;;1.85;1.60;;;26.70;99.90;;;;;;5070747;28;20339;-71
2021/07/21 06:25:44;;;;;;;2.55;1.40;;;28.20;98.50;;;;;;5063580;28;20193;-71
2021/07/21 06:28:23;;;;;;;2.55;1.90;;;29.80;95.00;;;;;;5059838;28;20205;-72
2021/07/21 06:30:51;;;;;;;2.47;1.92;;;31.30;91.20;;;;;;5079201;28;20765;-72
2021/07/21 06:33:24;;;;;;;1.75;1.52;;;32.40;86.20;;;;;;5075869;28;20193;-71
2021/07/21 06:35:52;;;;;;;2.45;1.52;;;33.30;80.10;;;;;;5075992;28;20220;-72
2021/07/21 06:38:23;;;;;;;1.75;1.65;;;34.00;75.70;;;;;;5064759;28;20216;-72
2021/07/21 06:41:04;;;;;;;2.08;1.70;;;34.50;71.70;;;;;;5080600;28;20679;-71
2021/07/21 06:43:39;;;;;;;2.25;2.00;;;34.80;69.20;;;;;;5066119;28;20205;-71
2021/07/21 06:46:13;;;;;;;1.60;1.50;;;34.90;66.30;;;;;;5089147;28;20201;-72
2021/07/21 06:48:42;;;;;;;1.77;1.67;;;34.80;65.60;;;;;;5059043;28;20194;-72
2021/07/21 06:51:11;;;;;;;1.60;1.50;;;34.90;64.80;;;;;;5061773;28;20203;-72
2021/07/21 06:53:40;;;;;;;2.25;1.25;;;34.90;63.90;;;;;;5058006;28;20202;-72
2021/07/21 06:56:14;;;;;;;1.30;1.30;;;34.40;63.30;;;;;;5064730;28;20208;-72
2021/07/21 06:59:05;;;;;;;1.65;1.55;;;33.60;63.60;;;;;;5058259;28;20249;-72
2021/07/21 07:01:32;;;;;;;1.50;1.40;;;32.80;64.30;;;;;;5059392;28;20206;-72
2021/07/21 07:04:22;;;;;;;1.88;1.70;;;32.30;64.80;;;;;;5056330;28;20197;-72
2021/07/21 07:07:07;;;;;;;1.95;1.77;;;31.60;63.90;;;;;;5057558;28;20869;-72
2021/07/21 07:09:54;;;;;;;2.00;1.52;;;30.90;64.60;;;;;;5057159;28;20597;-72
2021/07/21 07:12:28;;;;;;;1.52;1.42;;;30.20;64.60;;;;;;5054688;28;20319;-72
2021/07/21 07:14:55;;;;;;;1.60;1.50;;;29.70;65.20;;;;;;5043207;28;20201;-72
2021/07/21 07:17:25;;;;;;;1.45;1.20;;;29.70;65.70;;;;;;5043485;28;20220;-72
2021/07/21 07:19:52;;;;;;;1.40;1.30;;;30.10;65.30;;;;;;5056566;28;20699;-72
2021/07/21 07:22:19;;;;;;;1.42;1.33;;;30.90;65.30;;;;;;5060529;28;20422;-73
2021/07/21 07:24:47;;;;;;;2.10;1.33;;;31.50;63.40;;;;;;5053099;28;20766;-74
2021/07/21 07:27:15;;;;;;;2.13;1.50;;;31.90;62.40;;;;;;5059742;28;20288;-73
2021/07/21 07:29:42;;;;;;;2.00;1.90;;;32.00;61.40;;;;;;5061407;28;20275;-74
2021/07/21 07:32:09;;;;;;;1.60;1.50;;;32.10;61.30;;;;;;5057613;28;20205;-73
2021/07/21 07:34:36;;;;;;;1.60;1.50;;;32.20;61.40;;;;;;5062746;28;20685;-74
2021/07/21 07:37:04;;;;;;;1.77;1.42;;;32.30;60.10;;;;;;5063300;28;20197;-73
2021/07/21 07:39:31;;;;;;;1.50;1.40;;;32.30;59.70;;;;;;5064246;28;20772;-74
2021/07/21 07:42:00;;;;;;;1.60;1.50;;;32.00;59.50;;;;;;5064914;28;20537;-73
2021/07/21 07:44:29;;;;;;;1.73;1.60;;;31.60;58.70;;;;;;5067113;28;20293;-74
2021/07/21 07:46:55;;;;;;;2.83;1.50;;;31.10;58.60;;;;;;5097117;28;20193;-74
2021/07/21 07:49:23;;;;;;;1.48;1.38;;;30.90;59.40;;;;;;5061421;28;20703;-74
2021/07/21 07:51:51;;;;;;;1.60;1.50;;;30.70;59.70;;;;;;5066253;28;20201;-74
2021/07/21 07:54:18;;;;;;;1.67;1.60;;;30.50;59.60;;;;;;5065335;28;20309;-75
2021/07/21 07:56:46;;;;;;;2.35;1.67;;;30.30;58.80;;;;;;5065550;28;20201;-75
2021/07/21 07:59:12;;;;;;;2.00;1.88;;;29.90;58.10;;;;;;5062136;28;20733;-75
2021/07/21 08:01:41;;;;;;;2.08;1.60;;;29.50;59.10;;;;;;5065065;28;20201;-74
2021/07/21 08:04:08;;;;;;;4.45;1.85;;;29.30;58.70;;;;;;5092149;28;20430;-74
2021/07/21 08:06:35;;;;;;;1.60;1.50;;;28.90;57.80;;;;;;5064518;28;20201;-72
2021/07/21 08:09:12;;;;;;;1.33;1.23;;;28.40;58.60;;;;;;5094936;27;20273;-75
2021/07/21 08:11:39;;;;;;;1.48;1.38;;;28.00;59.60;;;;;;5062977;28;20204;-75
2021/07/21 08:14:06;;;;;;;1.63;1.30;;;27.80;60.10;;;;;;5061050;28;20743;-75
2021/07/21 08:16:33;;;;;;;1.60;1.50;;;27.70;60.80;;;;;;5066481;28;20212;-76
2021/07/21 08:19:02;;;;;;;1.50;1.30;;;27.90;61.10;;;;;;5059866;28;20442;-75
2021/07/21 08:21:29;;;;;;;1.85;1.40;;;28.00;61.70;;;;;;5061509;28;20229;-74
2021/07/21 08:23:56;;;;;;;2.20;1.42;;;28.30;62.00;;;;;;5061411;28;20202;-74
2021/07/21 08:26:23;;;;;;;1.23;1.20;;;28.70;62.10;;;;;;5063210;28;20201;-74
2021/07/21 08:28:50;;;;;;;1.55;1.45;;;28.90;61.90;;;;;;5063248;28;20201;-75
2021/07/21 08:31:17;;;;;;;2.22;1.25;;;29.00;62.00;;;;;;5059509;28;20204;-75
2021/07/21 08:33:44;;;;;;;1.17;1.17;;;29.30;62.10;;;;;;5059058;28;20277;-75
2021/07/21 08:36:13;;;;;;;1.08;1.08;;;29.60;62.00;;;;;;5067082;28;20197;-74
2021/07/21 08:38:40;;;;;;;2.72;1.30;;;29.80;61.50;;;;;;5061851;28;20541;-75
2021/07/21 08:41:08;;;;;;;1.00;1.00;;;30.10;61.20;;;;;;5061529;28;20204;-75
2021/07/21 08:43:37;;;;;;;1.30;1.20;;;30.30;60.40;;;;;;5060610;28;20193;-75
2021/07/21 08:46:05;;;;;;;1.95;1.20;;;30.30;59.40;;;;;;5065128;28;20197;-75
2021/07/21 08:48:32;;;;;;;3.22;1.30;;;30.10;58.80;;;;;;5060427;28;20294;-75
2021/07/21 08:50:59;;;;;;;1.15;1.15;;;30.00;58.70;;;;;;5061791;28;20200;-75
2021/07/21 08:53:30;;;;;;;1.40;1.30;;;29.90;58.70;;;;;;5057942;28;20197;-75
2021/07/21 08:55:57;;;;;;;1.65;1.40;;;29.80;58.70;;;;;;5064846;28;20201;-75
2021/07/21 08:58:24;;;;;;;1.10;1.10;;;29.70;58.50;;;;;;5061977;28;20224;-73
2021/07/21 09:00:53;;;;;;;1.73;1.23;;;29.60;58.60;;;;;;5064940;28;20217;-76
2021/07/21 09:03:21;;;;;;;1.42;1.20;;;29.50;58.50;;;;;;5058750;28;20719;-75
2021/07/21 09:05:49;;;;;;;1.42;1.33;;;29.40;58.50;;;;;;5057525;28;20682;-75
2021/07/21 09:08:17;;;;;;;1.75;1.17;;;29.30;58.40;;;;;;5059746;28;20338;-75
2021/07/21 09:10:47;;;;;;;1.67;1.42;;;29.20;58.40;;;;;;5058853;28;20201;-75
2021/07/21 09:13:14;;;;;;;7.53;1.80;;;29.00;57.80;;;;;;5062368;28;20240;-75
2021/07/21 09:15:43;;;;;;;1.50;1.40;;;28.90;57.20;;;;;;5058135;28;20198;-76
2021/07/21 09:18:12;;;;;;;1.42;1.33;;;28.70;57.20;;;;;;5097116;28;20576;-75
2021/07/21 09:20:40;;;;;;;2.03;1.15;;;28.40;57.30;;;;;;5062207;28;20222;-74
2021/07/21 09:23:08;;;;;;;1.42;1.33;;;28.30;57.40;;;;;;5061219;28;20201;-74
2021/07/21 09:25:37;;;;;;;3.80;1.40;;;28.20;57.90;;;;;;5065510;28;20193;-72
2021/07/21 09:28:07;;;;;;;2.38;1.48;;;28.10;57.10;;;;;;5091589;28;20214;-74
2021/07/21 09:30:37;;;;;;;1.60;1.50;;;28.00;57.20;;;;;;5065980;28;20280;-75
2021/07/21 09:33:06;;;;;;;1.52;1.42;;;27.90;57.40;;;;;;5057354;28;20637;-74
2021/07/21 09:35:34;;;;;;;1.33;1.23;;;27.90;58.20;;;;;;5063898;28;20429;-75
2021/07/21 09:38:04;;;;;;;1.30;1.27;;;27.80;57.80;;;;;;5065426;28;20556;-73
2021/07/21 09:40:31;;;;;;;2.88;1.40;;;27.80;57.90;;;;;;5064244;28;20221;-73
2021/07/21 09:42:58;;;;;;;1.40;1.30;;;27.70;57.90;;;;;;5064008;28;20243;-74
2021/07/21 09:45:27;;;;;;;3.38;1.33;;;27.70;58.10;;;;;;5092016;27;20279;-74
2021/07/21 09:47:56;;;;;;;1.58;1.48;;;27.70;58.00;;;;;;5060458;28;20625;-74
2021/07/21 09:50:25;;;;;;;1.95;1.10;;;27.70;58.30;;;;;;5060228;28;20367;-73
2021/07/21 09:52:55;;;;;;;3.17;1.80;;;27.70;58.50;;;;;;5093751;28;20251;-74
2021/07/21 09:55:24;;;;;;;2.10;1.50;;;27.50;58.30;;;;;;5064327;28;20224;-73
2021/07/21 09:58:03;;;;;;;1.63;1.52;;;27.20;58.80;;;;;;5062921;28;20197;-74
2021/07/21 10:00:34;;;;;;;3.03;1.50;;;27.00;59.00;;;;;;5059956;28;20260;-73
2021/07/21 10:03:14;;;;;;;1.45;1.35;;;26.90;59.00;;;;;;5059433;28;20205;-73
2021/07/21 10:06:13;;;;;;;1.75;1.40;;;26.90;59.00;;;;;;5057436;28;20208;-74
2021/07/21 10:08:43;;;;;;;4.45;1.75;;;27.00;59.00;;;;;;5058853;28;20301;-74
2021/07/21 10:11:28;;;;;;;1.60;1.25;;;27.10;59.00;;;;;;5058879;28;20530;-70
2021/07/21 10:14:08;;;;;;;1.58;1.30;;;27.10;59.10;;;;;;5059483;28;20250;-70
2021/07/21 10:16:40;;;;;;;2.20;1.70;;;27.20;59.00;;;;;;5065846;28;20200;-70
2021/07/21 10:19:10;;;;;;;1.77;1.33;;;27.30;58.90;;;;;;5065845;28;20215;-70
2021/07/21 10:21:39;;;;;;;1.60;1.45;;;27.40;58.50;;;;;;5098036;28;20209;-70
2021/07/21 10:24:08;;;;;;;1.40;1.30;;;27.50;58.40;;;;;;5097778;28;20199;-70
2021/07/21 10:26:35;;;;;;;2.10;1.20;;;27.70;58.40;;;;;;5065192;28;20655;-70
2021/07/21 10:29:04;;;;;;;1.58;1.10;;;27.90;58.20;;;;;;5098465;28;20627;-70
2021/07/21 10:31:32;;;;;;;1.60;1.50;;;28.10;58.00;;;;;;5059314;28;20193;-69
2021/07/21 10:34:01;;;;;;;1.77;1.17;;;28.80;57.30;;;;;;5059402;28;20209;-69
2021/07/21 10:36:30;;;;;;;1.17;1.17;;;29.00;56.60;;;;;;5059351;28;20205;-69
2021/07/21 10:38:58;;;;;;;2.35;1.42;;;29.20;56.60;;;;;;5099221;28;20213;-69
2021/07/21 10:41:29;;;;;;;4.63;1.70;;;29.40;56.30;;;;;;5083760;28;20210;-69
2021/07/21 10:43:58;;;;;;;1.75;1.65;;;29.90;55.40;;;;;;5051683;28;20232;-69
2021/07/21 10:46:34;;;;;;;2.35;1.73;;;30.80;54.10;;;;;;5052897;28;20185;-70
2021/07/21 10:49:19;;;;;;;1.63;1.52;;;32.50;51.90;;;;;;5050668;28;20251;-70
2021/07/21 10:52:17;;;;;;;6.72;1.88;;;33.90;49.80;;;;;;5058369;28;20202;-70
2021/07/21 10:54:53;;;;;;;1.55;1.45;;;33.30;47.50;;;;;;5050539;28;20197;-69
2021/07/21 11:00:12;;;;;;;1.63;1.50;;;31.10;50.70;;;;;;5049544;28;20221;-71
2021/07/21 11:02:40;;;;;;;3.65;1.90;;;30.60;52.00;;;;;;5049392;28;20669;-71
2021/07/21 11:05:30;;;;;;;5.82;2.00;;;30.00;52.50;;;;;;5047275;28;20198;-71
2021/07/21 11:07:58;;;;;;;4.10;1.80;;;29.40;53.60;;;;;;5082051;28;20236;-71
2021/07/21 11:10:37;;;;;;;1.50;1.40;;;29.00;54.20;;;;;;5053627;28;20196;-71
2021/07/21 11:13:05;;;;;;;5.40;1.90;;;28.60;54.40;;;;;;5094510;28;20643;-72
2021/07/21 11:15:39;;;;;;;1.50;1.33;;;28.40;55.00;;;;;;5066213;28;20208;-71
2021/07/21 11:18:42;;;;;;;1.38;1.27;;;28.20;55.50;;;;;;5061093;28;20213;-71
2021/07/21 11:21:13;;;;;;;2.25;1.67;;;28.40;55.80;;;;;;5059778;28;20224;-70
2021/07/21 11:23:48;;;;;;;5.43;1.80;;;28.90;55.30;;;;;;5068842;28;20197;-71
2021/07/21 11:26:45;;;;;;;1.75;1.50;;;30.10;53.70;;;;;;5098310;28;20258;-70
2021/07/21 11:29:47;;;;;;;2.17;1.70;;;31.50;51.30;;;;;;5067335;28;20600;-70
2021/07/21 11:32:29;;;;;;;1.73;1.30;;;31.60;50.90;;;;;;5068148;28;20255;-70
2021/07/21 11:34:58;;;;;;;2.58;1.85;;;31.70;50.70;;;;;;5099211;28;20538;-70
2021/07/21 11:37:35;;;;;;;1.70;1.60;;;32.40;49.50;;;;;;5069387;28;20197;-70
2021/07/21 11:40:17;;;;;;;2.10;1.52;;;32.80;48.40;;;;;;5061758;28;20236;-70
2021/07/21 11:42:44;;;;;;;1.42;1.33;;;33.00;48.60;;;;;;5067017;28;20583;-70
2021/07/21 11:45:21;;;;;;;1.67;1.50;;;33.90;48.40;;;;;;5070381;28;20200;-70
2021/07/21 11:47:55;;;;;;;3.17;1.52;;;34.50;46.40;;;;;;5097161;28;20208;-70
2021/07/21 11:50:24;;;;;;;1.63;1.52;;;35.20;46.00;;;;;;5053771;28;20204;-71
2021/07/21 11:52:54;;;;;;;1.42;1.33;;;36.10;45.40;;;;;;5067606;28;20197;-71
2021/07/21 11:55:26;;;;;;;2.42;2.08;;;37.10;44.60;;;;;;5096211;28;20687;-71
2021/07/21 11:57:54;;;;;;;4.70;1.50;;;37.90;42.30;;;;;;5057970;28;20727;-71
2021/07/21 12:00:23;;;;;;;1.88;1.77;;;37.70;41.20;;;;;;5094254;27;20597;-71
2021/07/21 12:02:59;;;;;;;2.75;2.13;;;36.50;42.30;;;;;;5062785;28;20205;-71
2021/07/21 12:05:27;;;;;;;3.45;1.92;;;35.20;43.10;;;;;;5059152;28;20260;-71
2021/07/21 12:08:00;;;;;;;2.45;1.98;;;34.00;44.40;;;;;;5063961;28;20288;-71
2021/07/21 12:10:28;;;;;;;5.97;2.15;;;33.10;45.30;;;;;;5092541;28;20291;-70
2021/07/21 12:12:55;;;;;;;2.10;1.88;;;32.40;46.00;;;;;;5064179;28;20237;-75
2021/07/21 12:15:23;;;;;;;5.50;2.35;;;32.70;46.90;;;;;;5065202;28;20608;-74
2021/07/21 12:17:51;;;;;;;1.60;1.50;;;33.00;47.00;;;;;;5066862;28;20680;-75
2021/07/21 12:20:18;;;;;;;1.52;1.42;;;33.20;46.90;;;;;;5046792;28;20694;-75
2021/07/21 12:22:47;;;;;;;1.30;1.30;;;33.10;47.10;;;;;;5093399;27;20224;-75
2021/07/21 12:25:17;;;;;;;2.85;1.83;;;32.90;47.30;;;;;;5065262;28;20661;-74
2021/07/21 12:27:46;;;;;;;2.45;2.08;;;32.20;47.40;;;;;;5061239;28;20601;-75
2021/07/21 12:30:15;;;;;;;3.10;2.03;;;31.30;48.30;;;;;;5058211;28;20204;-75
2021/07/21 12:32:43;;;;;;;3.35;2.00;;;30.50;49.40;;;;;;5066033;28;20232;-75
2021/07/21 12:35:11;;;;;;;2.67;1.83;;;29.80;51.00;;;;;;5063177;28;20236;-75
2021/07/21 12:37:45;;;;;;;2.30;1.90;;;29.00;52.00;;;;;;5063322;28;20277;-74
2021/07/21 12:40:16;;;;;;;1.70;1.55;;;28.50;53.10;;;;;;5064756;28;20375;-74
2021/07/21 12:42:43;;;;;;;2.15;1.55;;;28.20;53.50;;;;;;5061423;28;20201;-75
2021/07/21 12:45:13;;;;;;;1.75;1.65;;;28.00;54.00;;;;;;5059721;28;20197;-75
2021/07/21 12:47:42;;;;;;;1.30;1.30;;;27.90;54.60;;;;;;5061132;28;20548;-74
2021/07/21 12:50:12;;;;;;;1.33;1.23;;;27.80;54.90;;;;;;5065144;28;20194;-74
2021/07/21 12:52:41;;;;;;;1.88;1.50;;;27.70;54.90;;;;;;5068081;28;20217;-74
2021/07/21 12:55:10;;;;;;;1.30;1.20;;;27.70;55.00;;;;;;5064729;28;20211;-75
2021/07/21 12:57:44;;;;;;;1.40;1.30;;;27.70;55.10;;;;;;5066067;28;20660;-74
2021/07/21 13:00:15;;;;;;;1.42;1.33;;;27.80;55.10;;;;;;5096176;27;20215;-74
2021/07/21 13:02:53;;;;;;;1.42;1.33;;;27.90;55.20;;;;;;5056895;28;20434;-70
2021/07/21 13:05:32;;;;;;;1.48;1.13;;;28.10;56.20;;;;;;5064450;28;20558;-70
2021/07/21 13:08:00;;;;;;;2.28;1.50;;;28.20;55.50;;;;;;5060770;28;20854;-70
2021/07/21 13:10:29;;;;;;;1.60;1.50;;;28.20;55.50;;;;;;5065844;28;20200;-71
2021/07/21 13:12:59;;;;;;;1.40;1.30;;;28.30;55.60;;;;;;5065499;28;20236;-71
2021/07/21 13:15:28;;;;;;;1.77;1.30;;;28.30;55.60;;;;;;5062439;28;20212;-69
2021/07/21 13:18:07;;;;;;;1.65;1.55;;;28.20;55.60;;;;;;5066614;28;20193;-70
2021/07/21 13:20:41;;;;;;;1.77;1.30;;;28.10;55.70;;;;;;5059116;28;20218;-70